sensor_id;sensor_type;location;lat;lon;timestamp;pressure;altitude;pressure_sealevel;temperature;humidity
70506;BME280;58032;49.820;6.274;2022-10-22T00:00:08;97185.50;;;13.63;100.00
70506;BME280;58032;49.820;6.274;2022-10-22T00:02:36;97184.16;;;13.58;100.00
70506;BME280;58032;49.820;6.274;2022-10-22T00:05:03;97183.59;;;13.54;100.00
70506;BME280;58032;49.820;6.274;2022-10-22T00:07:31;97179.50;;;13.55;100.00
70506;BME280;58032;49.820;6.274;2022-10-22T00:09:58;97180.94;;;13.50;100.00
70506;BME280;58032;49.820;6.274;2022-10-22T00:12:25;97185.44;;;13.42;100.00
70506;BME280;58032;49.820;6.274;2022-10-22T00:14:52;97180.75;;;13.39;100.00
70506;BME280;58032;49.820;6.274;2022-10-22T00:17:19;97188.16;;;13.36;100.00
70506;BME280;58032;49.820;6.274;2022-10-22T00:19:46;97197.88;;;13.35;100.00
70506;BME280;58032;49.820;6.274;2022-10-22T00:22:13;97193.50;;;13.34;100.00
70506;BME280;58032;49.820;6.274;2022-10-22T00:24:40;97188.84;;;13.31;100.00
70506;BME280;58032;49.820;6.274;2022-10-22T00:27:10;97198.88;;;13.32;100.00
70506;BME280;58032;49.820;6.274;2022-10-22T00:29:37;97194.69;;;13.27;100.00
70506;BME280;58032;49.820;6.274;2022-10-22T00:32:05;97193.50;;;13.34;100.00
70506;BME280;58032;49.820;6.274;2022-10-22T00:34:32;97198.38;;;13.34;100.00
70506;BME280;58032;49.820;6.274;2022-10-22T00:36:59;97200.25;;;13.22;100.00
70506;BME280;58032;49.820;6.274;2022-10-22T00:39:27;97207.66;;;13.19;100.00
70506;BME280;58032;49.820;6.274;2022-10-22T00:41:55;97219.66;;;13.14;100.00
70506;BME280;58032;49.820;6.274;2022-10-22T00:47:36;97218.97;;;13.19;100.00
70506;BME280;58032;49.820;6.274;2022-10-22T00:50:09;97221.28;;;13.21;100.00
70506;BME280;58032;49.820;6.274;2022-10-22T00:52:37;97222.47;;;13.29;100.00
70506;BME280;58032;49.820;6.274;2022-10-22T00:55:05;97222.78;;;13.31;100.00
70506;BME280;58032;49.820;6.274;2022-10-22T00:57:33;97225.41;;;13.35;100.00
70506;BME280;58032;49.820;6.274;2022-10-22T01:00:00;97216.75;;;13.38;100.00
70506;BME280;58032;49.820;6.274;2022-10-22T01:02:28;97217.53;;;13.39;100.00
70506;BME280;58032;49.820;6.274;2022-10-22T01:04:54;97214.22;;;13.40;100.00
70506;BME280;58032;49.820;6.274;2022-10-22T01:07:23;97223.19;;;13.39;100.00
70506;BME280;58032;49.820;6.274;2022-10-22T01:13:21;97223.19;;;13.39;100.00
70506;BME280;58032;49.820;6.274;2022-10-22T01:16:09;97232.63;;;13.36;100.00
70506;BME280;58032;49.820;6.274;2022-10-22T01:21:39;97232.91;;;13.38;100.00
70506;BME280;58032;49.820;6.274;2022-10-22T01:24:38;97226.81;;;13.39;100.00
70506;BME280;58032;49.820;6.274;2022-10-22T01:30:01;97228.84;;;13.39;100.00
70506;BME280;58032;49.820;6.274;2022-10-22T01:32:33;97228.84;;;13.39;100.00
70506;BME280;58032;49.820;6.274;2022-10-22T01:35:07;97227.66;;;13.45;100.00
70506;BME280;58032;49.820;6.274;2022-10-22T01:37:43;97232.13;;;13.37;100.00
70506;BME280;58032;49.820;6.274;2022-10-22T01:40:10;97238.88;;;13.40;100.00
70506;BME280;58032;49.820;6.274;2022-10-22T01:42:39;97232.63;;;13.36;100.00
70506;BME280;58032;49.820;6.274;2022-10-22T01:45:11;97240.59;;;13.37;100.00
70506;BME280;58032;49.820;6.274;2022-10-22T01:48:03;97244.13;;;13.32;100.00
70506;BME280;58032;49.820;6.274;2022-10-22T01:53:27;97244.59;;;13.30;100.00
70506;BME280;58032;49.820;6.274;2022-10-22T01:58:52;97247.81;;;13.23;100.00
70506;BME280;58032;49.820;6.274;2022-10-22T02:01:34;97242.53;;;13.16;100.00
70506;BME280;58032;49.820;6.274;2022-10-22T02:04:17;97248.31;;;13.22;100.00
70506;BME280;58032;49.820;6.274;2022-10-22T02:06:46;97241.56;;;13.19;100.00
70506;BME280;58032;49.820;6.274;2022-10-22T02:09:16;97243.53;;;13.13;100.00
70506;BME280;58032;49.820;6.274;2022-10-22T02:11:45;97241.88;;;13.21;100.00
70506;BME280;58032;49.820;6.274;2022-10-22T02:14:14;97248.19;;;13.16;100.00
70506;BME280;58032;49.820;6.274;2022-10-22T02:16:45;97246.63;;;13.15;100.00
70506;BME280;58032;49.820;6.274;2022-10-22T02:21:43;97250.75;;;13.14;100.00
70506;BME280;58032;49.820;6.274;2022-10-22T02:24:11;97244.47;;;13.10;100.00
70506;BME280;58032;49.820;6.274;2022-10-22T02:26:45;97244.66;;;13.06;100.00
70506;BME280;58032;49.820;6.274;2022-10-22T02:29:19;97248.84;;;12.96;100.00
70506;BME280;58032;49.820;6.274;2022-10-22T02:31:49;97242.19;;;12.84;100.00
70506;BME280;58032;49.820;6.274;2022-10-22T02:34:21;97238.16;;;12.76;100.00
70506;BME280;58032;49.820;6.274;2022-10-22T02:36:50;97242.56;;;12.77;100.00
70506;BME280;58032;49.820;6.274;2022-10-22T02:39:19;97253.75;;;12.71;100.00
70506;BME280;58032;49.820;6.274;2022-10-22T02:41:47;97255.91;;;12.76;100.00
70506;BME280;58032;49.820;6.274;2022-10-22T02:44:14;97258.81;;;12.67;100.00
70506;BME280;58032;49.820;6.274;2022-10-22T02:46:42;97260.38;;;12.68;100.00
70506;BME280;58032;49.820;6.274;2022-10-22T02:49:09;97251.38;;;12.55;100.00
70506;BME280;58032;49.820;6.274;2022-10-22T02:51:36;97256.31;;;12.45;100.00
70506;BME280;58032;49.820;6.274;2022-10-22T02:54:03;97262.59;;;12.40;100.00
70506;BME280;58032;49.820;6.274;2022-10-22T02:56:30;97260.97;;;12.48;100.00
70506;BME280;58032;49.820;6.274;2022-10-22T02:58:57;97259.31;;;12.41;100.00
70506;BME280;58032;49.820;6.274;2022-10-22T03:01:24;97263.06;;;12.38;100.00
70506;BME280;58032;49.820;6.274;2022-10-22T03:03:51;97272.50;;;12.35;100.00
70506;BME280;58032;49.820;6.274;2022-10-22T03:06:19;97266.09;;;12.34;100.00
70506;BME280;58032;49.820;6.274;2022-10-22T03:08:46;97276.25;;;12.41;100.00
70506;BME280;58032;49.820;6.274;2022-10-22T03:11:13;97281.59;;;12.39;100.00
70506;BME280;58032;49.820;6.274;2022-10-22T03:13:40;97290.41;;;12.32;100.00
70506;BME280;58032;49.820;6.274;2022-10-22T03:16:07;97289.78;;;12.28;100.00
70506;BME280;58032;49.820;6.274;2022-10-22T03:18:34;97290.41;;;12.32;100.00
70506;BME280;58032;49.820;6.274;2022-10-22T03:21:18;97293.22;;;12.32;100.00
70506;BME280;58032;49.820;6.274;2022-10-22T03:23:46;97306.28;;;12.29;100.00
70506;BME280;58032;49.820;6.274;2022-10-22T03:26:14;97302.22;;;12.21;100.00
70506;BME280;58032;49.820;6.274;2022-10-22T03:28:41;97298.00;;;12.16;100.00
70506;BME280;58032;49.820;6.274;2022-10-22T03:31:08;97303.84;;;12.13;100.00
70506;BME280;58032;49.820;6.274;2022-10-22T03:33:35;97301.00;;;12.13;100.00
70506;BME280;58032;49.820;6.274;2022-10-22T03:36:02;97308.81;;;12.18;100.00
70506;BME280;58032;49.820;6.274;2022-10-22T03:38:29;97305.84;;;12.12;100.00
70506;BME280;58032;49.820;6.274;2022-10-22T03:40:56;97310.91;;;12.08;100.00
70506;BME280;58032;49.820;6.274;2022-10-22T03:43:24;97305.75;;;12.07;100.00
70506;BME280;58032;49.820;6.274;2022-10-22T03:45:51;97314.34;;;12.03;100.00
70506;BME280;58032;49.820;6.274;2022-10-22T03:48:18;97308.41;;;11.92;100.00
70506;BME280;58032;49.820;6.274;2022-10-22T03:50:45;97310.31;;;11.95;100.00
70506;BME280;58032;49.820;6.274;2022-10-22T03:53:12;97299.22;;;11.82;100.00
70506;BME280;58032;49.820;6.274;2022-10-22T03:55:40;97297.81;;;11.77;100.00
70506;BME280;58032;49.820;6.274;2022-10-22T03:58:07;97298.31;;;11.66;100.00
70506;BME280;58032;49.820;6.274;2022-10-22T04:00:34;97299.41;;;11.60;100.00
70506;BME280;58032;49.820;6.274;2022-10-22T04:03:01;97304.00;;;11.48;100.00
70506;BME280;58032;49.820;6.274;2022-10-22T04:05:28;97309.94;;;11.50;100.00
70506;BME280;58032;49.820;6.274;2022-10-22T04:07:55;97315.13;;;11.33;100.00
70506;BME280;58032;49.820;6.274;2022-10-22T04:10:22;97314.81;;;11.21;100.00
70506;BME280;58032;49.820;6.274;2022-10-22T04:12:49;97312.66;;;11.16;100.00
70506;BME280;58032;49.820;6.274;2022-10-22T04:15:17;97322.66;;;11.08;100.00
70506;BME280;58032;49.820;6.274;2022-10-22T04:17:44;97328.63;;;11.10;100.00
70506;BME280;58032;49.820;6.274;2022-10-22T04:20:11;97325.00;;;11.09;100.00
70506;BME280;58032;49.820;6.274;2022-10-22T04:22:38;97329.38;;;11.11;100.00
70506;BME280;58032;49.820;6.274;2022-10-22T04:25:04;97339.88;;;11.10;100.00
70506;BME280;58032;49.820;6.274;2022-10-22T04:27:33;97343.00;;;11.12;100.00
70506;BME280;58032;49.820;6.274;2022-10-22T04:30:01;97344.13;;;11.15;100.00
70506;BME280;58032;49.820;6.274;2022-10-22T04:32:28;97344.56;;;11.22;100.00
70506;BME280;58032;49.820;6.274;2022-10-22T04:34:55;97348.03;;;11.08;100.00
70506;BME280;58032;49.820;6.274;2022-10-22T04:37:22;97360.53;;;11.07;100.00
70506;BME280;58032;49.820;6.274;2022-10-22T04:39:49;97349.88;;;11.11;100.00
70506;BME280;58032;49.820;6.274;2022-10-22T04:42:15;97352.69;;;11.11;100.00
70506;BME280;58032;49.820;6.274;2022-10-22T04:44:42;97344.88;;;11.06;100.00
70506;BME280;58032;49.820;6.274;2022-10-22T04:47:09;97353.97;;;11.10;100.00
70506;BME280;58032;49.820;6.274;2022-10-22T04:49:36;97358.97;;;11.15;100.00
70506;BME280;58032;49.820;6.274;2022-10-22T04:52:04;97347.22;;;11.17;100.00
70506;BME280;58032;49.820;6.274;2022-10-22T04:54:30;97357.09;;;11.12;100.00
70506;BME280;58032;49.820;6.274;2022-10-22T04:56:57;97354.75;;;11.11;100.00
70506;BME280;58032;49.820;6.274;2022-10-22T04:59:24;97357.09;;;11.12;100.00
70506;BME280;58032;49.820;6.274;2022-10-22T05:01:51;97365.25;;;11.10;100.00
70506;BME280;58032;49.820;6.274;2022-10-22T05:04:18;97359.78;;;11.06;100.00
70506;BME280;58032;49.820;6.274;2022-10-22T05:06:45;97363.03;;;11.05;100.00
70506;BME280;58032;49.820;6.274;2022-10-22T05:09:17;97358.97;;;11.06;100.00
70506;BME280;58032;49.820;6.274;2022-10-22T05:11:47;97360.06;;;10.99;100.00
70506;BME280;58032;49.820;6.274;2022-10-22T05:14:17;97354.25;;;10.84;100.00
70506;BME280;58032;49.820;6.274;2022-10-22T05:16:44;97349.72;;;10.87;100.00
70506;BME280;58032;49.820;6.274;2022-10-22T05:19:17;97357.69;;;10.88;100.00
70506;BME280;58032;49.820;6.274;2022-10-22T05:21:44;97356.75;;;10.82;100.00
70506;BME280;58032;49.820;6.274;2022-10-22T05:24:12;97356.13;;;10.78;100.00
70506;BME280;58032;49.820;6.274;2022-10-22T05:26:39;97364.41;;;10.72;100.00
70506;BME280;58032;49.820;6.274;2022-10-22T05:29:06;97378.16;;;10.70;100.00
70506;BME280;58032;49.820;6.274;2022-10-22T05:31:33;97375.00;;;10.59;100.00
70506;BME280;58032;49.820;6.274;2022-10-22T05:34:00;97374.84;;;10.53;100.00
70506;BME280;58032;49.820;6.274;2022-10-22T05:36:27;97376.69;;;10.47;100.00
70506;BME280;58032;49.820;6.274;2022-10-22T05:38:55;97374.03;;;10.43;100.00
70506;BME280;58032;49.820;6.274;2022-10-22T05:41:24;97390.25;;;10.39;100.00
70506;BME280;58032;49.820;6.274;2022-10-22T05:43:54;97385.44;;;10.40;100.00
70506;BME280;58032;49.820;6.274;2022-10-22T05:46:23;97383.44;;;10.18;100.00
70506;BME280;58032;49.820;6.274;2022-10-22T05:48:59;97387.25;;;10.02;100.00
70506;BME280;58032;49.820;6.274;2022-10-22T05:51:28;97394.31;;;10.07;100.00
70506;BME280;58032;49.820;6.274;2022-10-22T05:53:59;97397.44;;;10.09;100.00
70506;BME280;58032;49.820;6.274;2022-10-22T05:56:27;97401.66;;;10.04;100.00
70506;BME280;58032;49.820;6.274;2022-10-22T05:58:56;97407.41;;;10.01;100.00
70506;BME280;58032;49.820;6.274;2022-10-22T06:01:33;97402.69;;;9.97;100.00
70506;BME280;58032;49.820;6.274;2022-10-22T06:04:05;97403.34;;;10.02;100.00
70506;BME280;58032;49.820;6.274;2022-10-22T06:09:12;97421.53;;;10.10;100.00
70506;BME280;58032;49.820;6.274;2022-10-22T06:11:41;97424.00;;;10.08;100.00
70506;BME280;58032;49.820;6.274;2022-10-22T06:14:09;97426.50;;;10.06;100.00
70506;BME280;58032;49.820;6.274;2022-10-22T06:16:37;97435.31;;;10.17;100.00
70506;BME280;58032;49.820;6.274;2022-10-22T06:19:04;97434.16;;;10.05;100.00
70506;BME280;58032;49.820;6.274;2022-10-22T06:21:31;97439.09;;;9.92;100.00
70506;BME280;58032;49.820;6.274;2022-10-22T06:23:59;97434.56;;;9.94;100.00
70506;BME280;58032;49.820;6.274;2022-10-22T06:26:27;97444.81;;;10.10;100.00
70506;BME280;58032;49.820;6.274;2022-10-22T06:28:55;97451.28;;;10.20;100.00
70506;BME280;58032;49.820;6.274;2022-10-22T06:31:23;97443.09;;;10.13;100.00
70506;BME280;58032;49.820;6.274;2022-10-22T06:33:51;97446.94;;;9.97;100.00
70506;BME280;58032;49.820;6.274;2022-10-22T06:36:20;97444.19;;;10.06;100.00
70506;BME280;58032;49.820;6.274;2022-10-22T06:38:50;97452.06;;;10.21;100.00
70506;BME280;58032;49.820;6.274;2022-10-22T06:41:18;97457.09;;;10.26;100.00
70506;BME280;58032;49.820;6.274;2022-10-22T06:43:45;97459.84;;;10.39;100.00
70506;BME280;58032;49.820;6.274;2022-10-22T06:46:18;97473.84;;;10.52;100.00
70506;BME280;58032;49.820;6.274;2022-10-22T06:48:50;97474.03;;;10.57;100.00
70506;BME280;58032;49.820;6.274;2022-10-22T06:51:18;97480.63;;;10.73;100.00
70506;BME280;58032;49.820;6.274;2022-10-22T06:53:47;97480.75;;;11.01;100.00
70506;BME280;58032;49.820;6.274;2022-10-22T06:56:16;97477.97;;;11.29;100.00
70506;BME280;58032;49.820;6.274;2022-10-22T06:58:51;97484.88;;;11.28;100.00
70506;BME280;58032;49.820;6.274;2022-10-22T07:01:21;97483.03;;;11.34;100.00
70506;BME280;58032;49.820;6.274;2022-10-22T07:03:50;97486.94;;;11.46;100.00
70506;BME280;58032;49.820;6.274;2022-10-22T07:06:18;97493.03;;;11.44;100.00
70506;BME280;58032;49.820;6.274;2022-10-22T07:08:45;97492.44;;;11.49;100.00
70506;BME280;58032;49.820;6.274;2022-10-22T07:11:18;97491.34;;;11.56;100.00
70506;BME280;58032;49.820;6.274;2022-10-22T07:13:45;97498.38;;;11.51;100.00
70506;BME280;58032;49.820;6.274;2022-10-22T07:16:13;97491.50;;;11.52;100.00
70506;BME280;58032;49.820;6.274;2022-10-22T07:18:41;97494.44;;;11.39;100.00
70506;BME280;58032;49.820;6.274;2022-10-22T07:21:09;97498.69;;;11.44;100.00
70506;BME280;58032;49.820;6.274;2022-10-22T07:23:37;97501.97;;;11.43;100.00
70506;BME280;58032;49.820;6.274;2022-10-22T07:26:05;97501.38;;;11.57;100.00
70506;BME280;58032;49.820;6.274;2022-10-22T07:28:36;97501.50;;;11.44;100.00
70506;BME280;58032;49.820;6.274;2022-10-22T07:31:08;97507.47;;;11.46;100.00
70506;BME280;58032;49.820;6.274;2022-10-22T07:33:35;97511.56;;;11.73;100.00
70506;BME280;58032;49.820;6.274;2022-10-22T07:36:06;97509.50;;;11.92;100.00
70506;BME280;58032;49.820;6.274;2022-10-22T07:38:34;97526.94;;;11.72;100.00
70506;BME280;58032;49.820;6.274;2022-10-22T07:41:02;97523.81;;;11.98;100.00
70506;BME280;58032;49.820;6.274;2022-10-22T07:43:29;97520.97;;;11.88;100.00
70506;BME280;58032;49.820;6.274;2022-10-22T07:45:56;97519.09;;;12.13;100.00
70506;BME280;58032;49.820;6.274;2022-10-22T07:48:23;97531.63;;;11.94;100.00
70506;BME280;58032;49.820;6.274;2022-10-22T07:50:50;97525.66;;;11.82;100.00
70506;BME280;58032;49.820;6.274;2022-10-22T07:53:17;97531.34;;;12.01;100.00
70506;BME280;58032;49.820;6.274;2022-10-22T07:55:50;97539.19;;;12.06;100.00
70506;BME280;58032;49.820;6.274;2022-10-22T07:58:18;97540.44;;;12.05;100.00
70506;BME280;58032;49.820;6.274;2022-10-22T08:00:46;97541.66;;;11.85;100.00
70506;BME280;58032;49.820;6.274;2022-10-22T08:03:14;97536.03;;;12.04;100.00
70506;BME280;58032;49.820;6.274;2022-10-22T08:05:42;97537.59;;;12.33;100.00
70506;BME280;58032;49.820;6.274;2022-10-22T08:08:13;97540.75;;;12.16;100.00
70506;BME280;58032;49.820;6.274;2022-10-22T08:10:42;97543.41;;;12.01;100.00
70506;BME280;58032;49.820;6.274;2022-10-22T08:13:10;97543.22;;;11.86;100.00
70506;BME280;58032;49.820;6.274;2022-10-22T08:15:37;97543.53;;;11.88;100.00
70506;BME280;58032;49.820;6.274;2022-10-22T08:18:05;97548.25;;;12.19;100.00
70506;BME280;58032;49.820;6.274;2022-10-22T08:20:32;97551.72;;;12.33;100.00
70506;BME280;58032;49.820;6.274;2022-10-22T08:22:59;97555.13;;;12.56;100.00
70506;BME280;58032;49.820;6.274;2022-10-22T08:25:26;97551.75;;;12.76;100.00
70506;BME280;58032;49.820;6.274;2022-10-22T08:27:53;97543.75;;;12.83;100.00
70506;BME280;58032;49.820;6.274;2022-10-22T08:30:20;97547.59;;;12.62;100.00
70506;BME280;58032;49.820;6.274;2022-10-22T08:32:48;97541.63;;;12.50;100.00
70506;BME280;58032;49.820;6.274;2022-10-22T08:35:16;97545.75;;;12.40;100.00
70506;BME280;58032;49.820;6.274;2022-10-22T08:37:43;97543.19;;;12.51;100.00
70506;BME280;58032;49.820;6.274;2022-10-22T08:40:20;97555.38;;;12.76;100.00
70506;BME280;58032;49.820;6.274;2022-10-22T08:45:26;97555.13;;;13.41;100.00
70506;BME280;58032;49.820;6.274;2022-10-22T08:50:34;97561.63;;;13.90;100.00
70506;BME280;58032;49.820;6.274;2022-10-22T08:53:07;97556.59;;;13.85;100.00
70506;BME280;58032;49.820;6.274;2022-10-22T08:55:38;97563.72;;;13.56;100.00
70506;BME280;58032;49.820;6.274;2022-10-22T08:58:33;97558.88;;;13.96;100.00
70506;BME280;58032;49.820;6.274;2022-10-22T09:01:02;97558.81;;;14.05;100.00
70506;BME280;58032;49.820;6.274;2022-10-22T09:03:40;97550.81;;;14.04;100.00
70506;BME280;58032;49.820;6.274;2022-10-22T09:06:31;97561.44;;;13.36;100.00
70506;BME280;58032;49.820;6.274;2022-10-22T09:09:00;97569.69;;;13.16;100.00
70506;BME280;58032;49.820;6.274;2022-10-22T09:11:37;97565.38;;;12.96;100.00
70506;BME280;58032;49.820;6.274;2022-10-22T09:14:10;97576.31;;;13.46;100.00
70506;BME280;58032;49.820;6.274;2022-10-22T09:19:28;97568.41;;;13.59;100.00
70506;BME280;58032;49.820;6.274;2022-10-22T09:24:39;97561.06;;;14.01;100.00
70506;BME280;58032;49.820;6.274;2022-10-22T09:27:13;97574.06;;;13.84;100.00
70506;BME280;58032;49.820;6.274;2022-10-22T09:29:41;97570.03;;;13.75;100.00
70506;BME280;58032;49.820;6.274;2022-10-22T09:32:09;97576.94;;;13.74;100.00
70506;BME280;58032;49.820;6.274;2022-10-22T09:34:36;97575.38;;;14.37;100.00
70506;BME280;58032;49.820;6.274;2022-10-22T09:37:08;97578.03;;;14.55;100.00
70506;BME280;58032;49.820;6.274;2022-10-22T09:39:43;97581.19;;;14.57;100.00
70506;BME280;58032;49.820;6.274;2022-10-22T09:42:14;97579.94;;;14.74;100.00
70506;BME280;58032;49.820;6.274;2022-10-22T09:44:41;97572.50;;;14.76;100.00
70506;BME280;58032;49.820;6.274;2022-10-22T09:47:41;97578.88;;;14.86;100.00
70506;BME280;58032;49.820;6.274;2022-10-22T09:50:19;97572.44;;;14.70;100.00
70506;BME280;58032;49.820;6.274;2022-10-22T09:53:02;97567.72;;;14.97;100.00
70506;BME280;58032;49.820;6.274;2022-10-22T09:55:30;97581.59;;;14.95;100.00
70506;BME280;58032;49.820;6.274;2022-10-22T09:57:58;97574.50;;;15.35;100.00
70506;BME280;58032;49.820;6.274;2022-10-22T10:00:26;97571.56;;;15.45;100.00
70506;BME280;58032;49.820;6.274;2022-10-22T10:02:57;97575.47;;;15.68;100.00
70506;BME280;58032;49.820;6.274;2022-10-22T10:05:34;97576.63;;;15.41;100.00
70506;BME280;58032;49.820;6.274;2022-10-22T10:08:14;97576.50;;;15.50;100.00
70506;BME280;58032;49.820;6.274;2022-10-22T10:10:58;97581.09;;;15.62;100.00
70506;BME280;58032;49.820;6.274;2022-10-22T10:13:51;97580.41;;;16.29;100.00
70506;BME280;58032;49.820;6.274;2022-10-22T10:19:06;97585.34;;;15.73;100.00
70506;BME280;58032;49.820;6.274;2022-10-22T10:24:45;97597.34;;;15.11;100.00
70506;BME280;58032;49.820;6.274;2022-10-22T10:27:26;97599.28;;;15.20;100.00
70506;BME280;58032;49.820;6.274;2022-10-22T10:30:13;97606.72;;;15.02;100.00
70506;BME280;58032;49.820;6.274;2022-10-22T10:41:15;97616.22;;;16.01;100.00
70506;BME280;58032;49.820;6.274;2022-10-22T10:43:51;97611.19;;;15.90;100.00
70506;BME280;58032;49.820;6.274;2022-10-22T10:49:19;97600.28;;;15.52;100.00
70506;BME280;58032;49.820;6.274;2022-10-22T10:52:01;97607.00;;;16.06;100.00
70506;BME280;58032;49.820;6.274;2022-10-22T11:00:19;97604.25;;;15.76;100.00
70506;BME280;58032;49.820;6.274;2022-10-22T11:05:57;97592.44;;;16.19;100.00
70506;BME280;58032;49.820;6.274;2022-10-22T11:08:33;97592.78;;;16.26;100.00
70506;BME280;58032;49.820;6.274;2022-10-22T11:11:06;97600.88;;;16.34;100.00
70506;BME280;58032;49.820;6.274;2022-10-22T11:13:49;97596.03;;;16.40;100.00
70506;BME280;58032;49.820;6.274;2022-10-22T11:21:42;97597.72;;;16.52;100.00
70506;BME280;58032;49.820;6.274;2022-10-22T11:24:18;97601.59;;;16.28;100.00
70506;BME280;58032;49.820;6.274;2022-10-22T11:26:54;97594.56;;;16.03;100.00
70506;BME280;58032;49.820;6.274;2022-10-22T11:29:32;97601.66;;;16.13;100.00
70506;BME280;58032;49.820;6.274;2022-10-22T11:32:01;97585.47;;;16.67;100.00
70506;BME280;58032;49.820;6.274;2022-10-22T11:34:39;97585.53;;;16.99;100.00
70506;BME280;58032;49.820;6.274;2022-10-22T11:37:10;97600.28;;;16.76;100.00
70506;BME280;58032;49.820;6.274;2022-10-22T11:39:50;97598.34;;;17.15;100.00
70506;BME280;58032;49.820;6.274;2022-10-22T11:43:07;97598.63;;;17.17;100.00
70506;BME280;58032;49.820;6.274;2022-10-22T11:48:05;97598.50;;;16.79;100.00
70506;BME280;58032;49.820;6.274;2022-10-22T11:50:56;97595.88;;;16.96;100.00
70506;BME280;58032;49.820;6.274;2022-10-22T11:58:42;97592.97;;;17.54;100.00
70506;BME280;58032;49.820;6.274;2022-10-22T12:06:16;97583.00;;;18.37;100.00
70506;BME280;58032;49.820;6.274;2022-10-22T12:11:28;97582.19;;;17.70;100.00
70506;BME280;58032;49.820;6.274;2022-10-22T12:19:31;97559.84;;;18.00;100.00
70506;BME280;58032;49.820;6.274;2022-10-22T12:22:31;97564.53;;;17.66;100.00
70506;BME280;58032;49.820;6.274;2022-10-22T12:25:01;97560.75;;;17.80;100.00
70506;BME280;58032;49.820;6.274;2022-10-22T12:27:37;97565.06;;;17.64;100.00
70506;BME280;58032;49.820;6.274;2022-10-22T12:30:25;97560.97;;;17.77;100.00
70506;BME280;58032;49.820;6.274;2022-10-22T12:32:55;97558.44;;;17.84;100.00
70506;BME280;58032;49.820;6.274;2022-10-22T12:35:25;97567.88;;;17.59;100.00
70506;BME280;58032;49.820;6.274;2022-10-22T12:38:12;97562.06;;;17.42;100.00
70506;BME280;58032;49.820;6.274;2022-10-22T12:40:40;97565.75;;;17.16;100.00
70506;BME280;58032;49.820;6.274;2022-10-22T12:43:14;97566.22;;;16.82;100.00
70506;BME280;58032;49.820;6.274;2022-10-22T12:45:42;97567.28;;;17.11;100.00
70506;BME280;58032;49.820;6.274;2022-10-22T12:48:37;97563.47;;;17.58;100.00
70506;BME280;58032;49.820;6.274;2022-10-22T12:51:04;97556.84;;;17.34;100.00
70506;BME280;58032;49.820;6.274;2022-10-22T12:53:51;97550.38;;;17.34;100.00
70506;BME280;58032;49.820;6.274;2022-10-22T12:56:27;97558.69;;;16.79;100.00
70506;BME280;58032;49.820;6.274;2022-10-22T12:59:03;97552.97;;;16.47;100.00
70506;BME280;58032;49.820;6.274;2022-10-22T13:01:36;97553.38;;;16.60;100.00
70506;BME280;58032;49.820;6.274;2022-10-22T13:06:45;97552.34;;;16.64;100.00
70506;BME280;58032;49.820;6.274;2022-10-22T13:09:21;97556.72;;;16.91;100.00
70506;BME280;58032;49.820;6.274;2022-10-22T13:11:50;97549.56;;;16.96;100.00
70506;BME280;58032;49.820;6.274;2022-10-22T13:14:26;97555.66;;;17.15;100.00
70506;BME280;58032;49.820;6.274;2022-10-22T13:17:07;97549.00;;;16.91;100.00
70506;BME280;58032;49.820;6.274;2022-10-22T13:19:44;97555.53;;;16.71;100.00
70506;BME280;58032;49.820;6.274;2022-10-22T13:24:52;97549.56;;;16.69;100.00
70506;BME280;58032;49.820;6.274;2022-10-22T13:27:19;97553.47;;;16.72;100.00
70506;BME280;58032;49.820;6.274;2022-10-22T13:29:46;97549.91;;;16.51;100.00
70506;BME280;58032;49.820;6.274;2022-10-22T13:32:26;97543.72;;;16.52;100.00
70506;BME280;58032;49.820;6.274;2022-10-22T13:34:57;97538.06;;;16.84;100.00
70506;BME280;58032;49.820;6.274;2022-10-22T13:37:25;97535.06;;;16.93;100.00
70506;BME280;58032;49.820;6.274;2022-10-22T13:39:53;97533.38;;;16.81;100.00
70506;BME280;58032;49.820;6.274;2022-10-22T13:42:19;97542.59;;;16.97;100.00
70506;BME280;58032;49.820;6.274;2022-10-22T13:44:48;97539.09;;;17.13;100.00
70506;BME280;58032;49.820;6.274;2022-10-22T13:47:27;97541.25;;;17.24;100.00
70506;BME280;58032;49.820;6.274;2022-10-22T13:50:00;97541.38;;;17.09;100.00
70506;BME280;58032;49.820;6.274;2022-10-22T13:52:39;97546.03;;;17.06;100.00
70506;BME280;58032;49.820;6.274;2022-10-22T13:55:23;97548.09;;;17.06;100.00
70506;BME280;58032;49.820;6.274;2022-10-22T13:58:11;97556.94;;;16.82;100.00
70506;BME280;58032;49.820;6.274;2022-10-22T14:00:41;97556.19;;;16.87;100.00
70506;BME280;58032;49.820;6.274;2022-10-22T14:03:10;97549.63;;;16.75;100.00
70506;BME280;58032;49.820;6.274;2022-10-22T14:05:38;97555.44;;;16.92;100.00
70506;BME280;58032;49.820;6.274;2022-10-22T14:08:15;97547.16;;;16.88;100.00
70506;BME280;58032;49.820;6.274;2022-10-22T14:10:43;97547.09;;;16.83;100.00
70506;BME280;58032;49.820;6.274;2022-10-22T14:13:11;97545.94;;;16.95;100.00
70506;BME280;58032;49.820;6.274;2022-10-22T14:15:39;97543.19;;;16.80;100.00
70506;BME280;58032;49.820;6.274;2022-10-22T14:18:07;97544.22;;;16.77;100.00
70506;BME280;58032;49.820;6.274;2022-10-22T14:20:39;97543.88;;;16.69;100.00
70506;BME280;58032;49.820;6.274;2022-10-22T14:23:13;97547.69;;;16.60;100.00
70506;BME280;58032;49.820;6.274;2022-10-22T14:25:40;97544.22;;;16.77;100.00
70506;BME280;58032;49.820;6.274;2022-10-22T14:28:09;97543.28;;;16.59;100.00
70506;BME280;58032;49.820;6.274;2022-10-22T14:30:37;97548.06;;;16.74;100.00
70506;BME280;58032;49.820;6.274;2022-10-22T14:33:16;97547.06;;;16.77;100.00
70506;BME280;58032;49.820;6.274;2022-10-22T14:35:44;97540.75;;;16.93;100.00
70506;BME280;58032;49.820;6.274;2022-10-22T14:38:11;97541.31;;;16.71;100.00
70506;BME280;58032;49.820;6.274;2022-10-22T14:40:38;97543.09;;;16.69;100.00